sensor_id;sensor_type;location;lat;lon;timestamp;temperature;humidity
11540;DHT22;5826;54.756;9.192;2023-04-05T00:01:25;4.40;89.00
11540;DHT22;5826;54.756;9.192;2023-04-05T00:03:54;4.40;89.10
11540;DHT22;5826;54.756;9.192;2023-04-05T00:06:22;4.40;89.00
11540;DHT22;5826;54.756;9.192;2023-04-05T00:08:51;4.40;89.20
11540;DHT22;5826;54.756;9.192;2023-04-05T00:11:22;4.40;89.00
11540;DHT22;5826;54.756;9.192;2023-04-05T00:13:48;4.40;89.20
11540;DHT22;5826;54.756;9.192;2023-04-05T00:16:15;4.40;89.50
11540;DHT22;5826;54.756;9.192;2023-04-05T00:18:41;4.40;89.10
11540;DHT22;5826;54.756;9.192;2023-04-05T00:21:14;4.40;89.40
11540;DHT22;5826;54.756;9.192;2023-04-05T00:23:40;4.40;89.30
11540;DHT22;5826;54.756;9.192;2023-04-05T00:26:06;4.30;89.10
11540;DHT22;5826;54.756;9.192;2023-04-05T00:28:33;4.30;89.10
11540;DHT22;5826;54.756;9.192;2023-04-05T00:30:58;4.30;89.90
11540;DHT22;5826;54.756;9.192;2023-04-05T00:33:24;4.20;89.30
11540;DHT22;5826;54.756;9.192;2023-04-05T00:35:49;4.20;89.40
11540;DHT22;5826;54.756;9.192;2023-04-05T00:38:15;4.10;89.70
11540;DHT22;5826;54.756;9.192;2023-04-05T00:40:41;4.10;89.70
11540;DHT22;5826;54.756;9.192;2023-04-05T00:43:06;4.10;90.00
11540;DHT22;5826;54.756;9.192;2023-04-05T00:45:32;4.10;89.50
11540;DHT22;5826;54.756;9.192;2023-04-05T00:47:57;4.00;90.00
11540;DHT22;5826;54.756;9.192;2023-04-05T00:50:23;3.90;89.80
11540;DHT22;5826;54.756;9.192;2023-04-05T00:52:49;3.90;90.00
11540;DHT22;5826;54.756;9.192;2023-04-05T00:55:15;3.80;90.20
11540;DHT22;5826;54.756;9.192;2023-04-05T00:57:42;3.70;90.20
11540;DHT22;5826;54.756;9.192;2023-04-05T01:00:09;3.70;90.20
11540;DHT22;5826;54.756;9.192;2023-04-05T01:02:45;3.70;90.30
11540;DHT22;5826;54.756;9.192;2023-04-05T01:05:41;3.70;90.40
11540;DHT22;5826;54.756;9.192;2023-04-05T01:08:18;3.80;90.50
11540;DHT22;5826;54.756;9.192;2023-04-05T01:10:50;3.80;90.40
11540;DHT22;5826;54.756;9.192;2023-04-05T01:13:18;3.70;90.40
11540;DHT22;5826;54.756;9.192;2023-04-05T01:15:43;3.70;90.60
11540;DHT22;5826;54.756;9.192;2023-04-05T01:18:09;3.70;90.40
11540;DHT22;5826;54.756;9.192;2023-04-05T01:20:41;3.60;90.50
11540;DHT22;5826;54.756;9.192;2023-04-05T01:26:09;3.50;90.60
11540;DHT22;5826;54.756;9.192;2023-04-05T01:37:48;3.50;90.80
11540;DHT22;5826;54.756;9.192;2023-04-05T01:40:17;3.50;90.70
11540;DHT22;5826;54.756;9.192;2023-04-05T01:42:43;3.50;90.70
11540;DHT22;5826;54.756;9.192;2023-04-05T01:45:12;3.50;90.60
11540;DHT22;5826;54.756;9.192;2023-04-05T01:47:37;3.40;90.70
11540;DHT22;5826;54.756;9.192;2023-04-05T01:50:03;3.40;90.80
11540;DHT22;5826;54.756;9.192;2023-04-05T01:52:29;3.40;90.90
11540;DHT22;5826;54.756;9.192;2023-04-05T01:54:54;3.70;91.00
11540;DHT22;5826;54.756;9.192;2023-04-05T01:57:20;3.40;90.90
11540;DHT22;5826;54.756;9.192;2023-04-05T01:59:46;3.40;90.90
11540;DHT22;5826;54.756;9.192;2023-04-05T02:02:11;3.40;90.80
11540;DHT22;5826;54.756;9.192;2023-04-05T02:04:37;3.30;91.10
11540;DHT22;5826;54.756;9.192;2023-04-05T02:07:03;3.30;91.00
11540;DHT22;5826;54.756;9.192;2023-04-05T02:09:28;3.30;91.10
11540;DHT22;5826;54.756;9.192;2023-04-05T02:11:54;3.30;91.10
11540;DHT22;5826;54.756;9.192;2023-04-05T02:14:20;3.30;91.30
11540;DHT22;5826;54.756;9.192;2023-04-05T02:16:46;3.20;91.40
11540;DHT22;5826;54.756;9.192;2023-04-05T02:19:12;3.20;91.30
11540;DHT22;5826;54.756;9.192;2023-04-05T02:21:38;3.30;91.30
11540;DHT22;5826;54.756;9.192;2023-04-05T02:24:05;3.30;91.30
11540;DHT22;5826;54.756;9.192;2023-04-05T02:26:30;3.30;91.30
11540;DHT22;5826;54.756;9.192;2023-04-05T02:28:56;3.20;91.30
11540;DHT22;5826;54.756;9.192;2023-04-05T02:31:21;3.20;91.20
11540;DHT22;5826;54.756;9.192;2023-04-05T02:33:47;3.20;91.40
11540;DHT22;5826;54.756;9.192;2023-04-05T02:36:13;3.20;91.10
11540;DHT22;5826;54.756;9.192;2023-04-05T02:38:39;3.10;91.20
11540;DHT22;5826;54.756;9.192;2023-04-05T02:41:08;3.10;91.40
11540;DHT22;5826;54.756;9.192;2023-04-05T02:43:36;3.10;91.50
11540;DHT22;5826;54.756;9.192;2023-04-05T02:46:01;3.10;91.40
11540;DHT22;5826;54.756;9.192;2023-04-05T02:48:27;3.00;91.50
11540;DHT22;5826;54.756;9.192;2023-04-05T02:50:52;3.10;91.40
11540;DHT22;5826;54.756;9.192;2023-04-05T02:53:19;3.10;91.40
11540;DHT22;5826;54.756;9.192;2023-04-05T02:55:52;3.10;91.30
11540;DHT22;5826;54.756;9.192;2023-04-05T02:58:18;3.10;91.40
11540;DHT22;5826;54.756;9.192;2023-04-05T03:00:47;3.50;91.50
11540;DHT22;5826;54.756;9.192;2023-04-05T03:03:17;3.00;91.40
11540;DHT22;5826;54.756;9.192;2023-04-05T03:05:43;3.00;91.50
11540;DHT22;5826;54.756;9.192;2023-04-05T03:08:09;3.00;91.50
11540;DHT22;5826;54.756;9.192;2023-04-05T03:10:44;3.00;91.50
11540;DHT22;5826;54.756;9.192;2023-04-05T03:13:09;3.00;91.50
11540;DHT22;5826;54.756;9.192;2023-04-05T03:15:35;3.00;91.50
11540;DHT22;5826;54.756;9.192;2023-04-05T03:18:01;3.00;91.50
11540;DHT22;5826;54.756;9.192;2023-04-05T03:20:26;3.00;91.70
11540;DHT22;5826;54.756;9.192;2023-04-05T03:22:52;2.90;91.70
11540;DHT22;5826;54.756;9.192;2023-04-05T03:25:17;2.90;91.70
11540;DHT22;5826;54.756;9.192;2023-04-05T03:27:43;2.90;91.70
11540;DHT22;5826;54.756;9.192;2023-04-05T03:30:09;2.90;91.70
11540;DHT22;5826;54.756;9.192;2023-04-05T03:32:35;2.80;91.70
11540;DHT22;5826;54.756;9.192;2023-04-05T03:35:01;2.80;91.80
11540;DHT22;5826;54.756;9.192;2023-04-05T03:37:26;2.80;91.90
11540;DHT22;5826;54.756;9.192;2023-04-05T03:39:52;2.80;91.90
11540;DHT22;5826;54.756;9.192;2023-04-05T03:42:17;3.10;92.20
11540;DHT22;5826;54.756;9.192;2023-04-05T03:44:43;2.70;91.90
11540;DHT22;5826;54.756;9.192;2023-04-05T03:47:09;2.70;92.10
11540;DHT22;5826;54.756;9.192;2023-04-05T03:49:35;2.70;92.20
11540;DHT22;5826;54.756;9.192;2023-04-05T03:52:00;2.80;92.30
11540;DHT22;5826;54.756;9.192;2023-04-05T03:54:26;2.70;92.40
11540;DHT22;5826;54.756;9.192;2023-04-05T03:56:51;2.70;92.30
11540;DHT22;5826;54.756;9.192;2023-04-05T03:59:17;2.60;92.30
11540;DHT22;5826;54.756;9.192;2023-04-05T04:01:42;2.60;92.40
11540;DHT22;5826;54.756;9.192;2023-04-05T04:04:09;2.60;92.80
11540;DHT22;5826;54.756;9.192;2023-04-05T04:06:34;2.60;92.40
11540;DHT22;5826;54.756;9.192;2023-04-05T04:09:01;2.60;92.70
11540;DHT22;5826;54.756;9.192;2023-04-05T04:11:26;2.80;92.80
11540;DHT22;5826;54.756;9.192;2023-04-05T04:13:52;2.60;92.80
11540;DHT22;5826;54.756;9.192;2023-04-05T04:16:18;2.60;92.60
11540;DHT22;5826;54.756;9.192;2023-04-05T04:18:43;2.60;92.70
11540;DHT22;5826;54.756;9.192;2023-04-05T04:21:09;2.60;92.60
11540;DHT22;5826;54.756;9.192;2023-04-05T04:23:34;2.60;92.80
11540;DHT22;5826;54.756;9.192;2023-04-05T04:26:03;2.50;92.70
11540;DHT22;5826;54.756;9.192;2023-04-05T04:28:28;2.50;92.80
11540;DHT22;5826;54.756;9.192;2023-04-05T04:30:54;3.10;92.90
11540;DHT22;5826;54.756;9.192;2023-04-05T04:33:19;2.50;92.80
11540;DHT22;5826;54.756;9.192;2023-04-05T04:35:45;2.50;93.00
11540;DHT22;5826;54.756;9.192;2023-04-05T04:38:13;2.50;92.90
11540;DHT22;5826;54.756;9.192;2023-04-05T04:40:43;2.50;93.00
11540;DHT22;5826;54.756;9.192;2023-04-05T04:43:13;2.50;93.30
11540;DHT22;5826;54.756;9.192;2023-04-05T04:45:42;2.50;93.10
11540;DHT22;5826;54.756;9.192;2023-04-05T04:48:11;2.50;93.30
11540;DHT22;5826;54.756;9.192;2023-04-05T04:50:38;2.50;93.10
11540;DHT22;5826;54.756;9.192;2023-04-05T04:53:04;2.50;93.00
11540;DHT22;5826;54.756;9.192;2023-04-05T04:55:30;2.50;93.00
11540;DHT22;5826;54.756;9.192;2023-04-05T04:57:58;2.40;93.20
11540;DHT22;5826;54.756;9.192;2023-04-05T05:00:24;2.40;93.20
11540;DHT22;5826;54.756;9.192;2023-04-05T05:02:51;2.50;93.30
11540;DHT22;5826;54.756;9.192;2023-04-05T05:05:17;2.40;93.30
11540;DHT22;5826;54.756;9.192;2023-04-05T05:07:42;2.40;93.20
11540;DHT22;5826;54.756;9.192;2023-04-05T05:10:11;2.50;93.40
11540;DHT22;5826;54.756;9.192;2023-04-05T05:12:40;2.50;93.10
11540;DHT22;5826;54.756;9.192;2023-04-05T05:15:06;3.00;93.30
11540;DHT22;5826;54.756;9.192;2023-04-05T05:17:32;2.50;93.30
11540;DHT22;5826;54.756;9.192;2023-04-05T05:19:58;2.50;93.30
11540;DHT22;5826;54.756;9.192;2023-04-05T05:22:25;2.60;93.60
11540;DHT22;5826;54.756;9.192;2023-04-05T05:24:51;2.70;93.50
11540;DHT22;5826;54.756;9.192;2023-04-05T05:27:17;2.70;93.70
11540;DHT22;5826;54.756;9.192;2023-04-05T05:29:42;2.70;93.40
11540;DHT22;5826;54.756;9.192;2023-04-05T05:32:08;2.70;93.60
11540;DHT22;5826;54.756;9.192;2023-04-05T05:34:33;3.30;93.60
11540;DHT22;5826;54.756;9.192;2023-04-05T05:36:59;2.70;93.40
11540;DHT22;5826;54.756;9.192;2023-04-05T05:39:25;2.70;93.60
11540;DHT22;5826;54.756;9.192;2023-04-05T05:41:51;2.70;93.60
11540;DHT22;5826;54.756;9.192;2023-04-05T05:44:16;2.80;93.60
11540;DHT22;5826;54.756;9.192;2023-04-05T05:46:42;2.80;93.80
11540;DHT22;5826;54.756;9.192;2023-04-05T05:49:08;2.90;93.70
11540;DHT22;5826;54.756;9.192;2023-04-05T05:51:33;2.90;93.70
11540;DHT22;5826;54.756;9.192;2023-04-05T05:54:00;2.90;93.60
11540;DHT22;5826;54.756;9.192;2023-04-05T05:56:25;2.90;93.70
11540;DHT22;5826;54.756;9.192;2023-04-05T05:58:51;2.90;93.80
11540;DHT22;5826;54.756;9.192;2023-04-05T06:01:17;2.90;93.80
11540;DHT22;5826;54.756;9.192;2023-04-05T06:03:47;2.90;93.70
11540;DHT22;5826;54.756;9.192;2023-04-05T06:06:12;3.00;93.80
11540;DHT22;5826;54.756;9.192;2023-04-05T06:08:38;3.00;93.60
11540;DHT22;5826;54.756;9.192;2023-04-05T06:11:03;3.00;93.90
11540;DHT22;5826;54.756;9.192;2023-04-05T06:13:29;3.00;93.70
11540;DHT22;5826;54.756;9.192;2023-04-05T06:15:55;3.00;94.00
11540;DHT22;5826;54.756;9.192;2023-04-05T06:18:20;3.00;94.00
11540;DHT22;5826;54.756;9.192;2023-04-05T06:20:46;3.10;94.10
11540;DHT22;5826;54.756;9.192;2023-04-05T06:23:12;3.10;93.70
11540;DHT22;5826;54.756;9.192;2023-04-05T06:25:38;3.10;93.80
11540;DHT22;5826;54.756;9.192;2023-04-05T06:28:05;3.00;93.70
11540;DHT22;5826;54.756;9.192;2023-04-05T06:30:32;3.20;94.30
11540;DHT22;5826;54.756;9.192;2023-04-05T06:32:58;3.20;94.20
11540;DHT22;5826;54.756;9.192;2023-04-05T06:35:24;3.30;93.90
11540;DHT22;5826;54.756;9.192;2023-04-05T06:37:50;3.40;94.00
11540;DHT22;5826;54.756;9.192;2023-04-05T06:40:16;3.50;93.80
11540;DHT22;5826;54.756;9.192;2023-04-05T06:42:41;3.70;94.10
11540;DHT22;5826;54.756;9.192;2023-04-05T06:45:07;3.80;93.60
11540;DHT22;5826;54.756;9.192;2023-04-05T06:47:37;3.90;93.50
11540;DHT22;5826;54.756;9.192;2023-04-05T06:50:05;4.00;93.30
11540;DHT22;5826;54.756;9.192;2023-04-05T06:52:31;4.00;93.40
11540;DHT22;5826;54.756;9.192;2023-04-05T06:54:57;4.00;93.30
11540;DHT22;5826;54.756;9.192;2023-04-05T06:57:23;4.00;93.20
11540;DHT22;5826;54.756;9.192;2023-04-05T06:59:49;4.10;93.40
11540;DHT22;5826;54.756;9.192;2023-04-05T07:02:15;4.10;93.40
11540;DHT22;5826;54.756;9.192;2023-04-05T07:04:40;4.20;93.40
11540;DHT22;5826;54.756;9.192;2023-04-05T07:07:06;4.30;93.30
11540;DHT22;5826;54.756;9.192;2023-04-05T07:09:32;4.30;93.30
11540;DHT22;5826;54.756;9.192;2023-04-05T07:11:58;4.30;93.50
11540;DHT22;5826;54.756;9.192;2023-04-05T07:14:24;4.40;94.20
11540;DHT22;5826;54.756;9.192;2023-04-05T07:16:50;4.40;93.50
11540;DHT22;5826;54.756;9.192;2023-04-05T07:19:17;4.50;93.30
11540;DHT22;5826;54.756;9.192;2023-04-05T07:21:43;4.50;93.80
11540;DHT22;5826;54.756;9.192;2023-04-05T07:24:08;4.60;93.50
11540;DHT22;5826;54.756;9.192;2023-04-05T07:26:35;4.60;93.80
11540;DHT22;5826;54.756;9.192;2023-04-05T07:29:02;4.60;93.30
11540;DHT22;5826;54.756;9.192;2023-04-05T07:31:28;4.70;93.70
11540;DHT22;5826;54.756;9.192;2023-04-05T07:33:54;4.80;93.40
11540;DHT22;5826;54.756;9.192;2023-04-05T07:36:19;4.80;93.20
11540;DHT22;5826;54.756;9.192;2023-04-05T07:38:45;4.90;93.00
11540;DHT22;5826;54.756;9.192;2023-04-05T07:41:10;5.10;93.10
11540;DHT22;5826;54.756;9.192;2023-04-05T07:43:36;5.20;92.90
11540;DHT22;5826;54.756;9.192;2023-04-05T07:46:04;5.30;93.50
11540;DHT22;5826;54.756;9.192;2023-04-05T07:48:30;5.40;93.80
11540;DHT22;5826;54.756;9.192;2023-04-05T07:50:55;5.40;93.90
11540;DHT22;5826;54.756;9.192;2023-04-05T07:53:21;5.50;94.40
11540;DHT22;5826;54.756;9.192;2023-04-05T07:55:49;5.50;93.60
11540;DHT22;5826;54.756;9.192;2023-04-05T07:58:14;5.60;93.50
11540;DHT22;5826;54.756;9.192;2023-04-05T08:00:40;5.70;93.60
11540;DHT22;5826;54.756;9.192;2023-04-05T08:03:06;5.80;92.90
11540;DHT22;5826;54.756;9.192;2023-04-05T08:05:31;5.90;92.80
11540;DHT22;5826;54.756;9.192;2023-04-05T08:07:57;6.00;94.40
11540;DHT22;5826;54.756;9.192;2023-04-05T08:10:23;6.00;94.00
11540;DHT22;5826;54.756;9.192;2023-04-05T08:12:49;6.10;93.20
11540;DHT22;5826;54.756;9.192;2023-04-05T08:15:14;6.20;93.00
11540;DHT22;5826;54.756;9.192;2023-04-05T08:17:40;6.30;92.70
11540;DHT22;5826;54.756;9.192;2023-04-05T08:20:06;6.50;92.70
11540;DHT22;5826;54.756;9.192;2023-04-05T08:22:32;6.60;93.10
11540;DHT22;5826;54.756;9.192;2023-04-05T08:24:57;6.70;93.10
11540;DHT22;5826;54.756;9.192;2023-04-05T08:27:23;6.90;92.70
11540;DHT22;5826;54.756;9.192;2023-04-05T08:29:48;7.00;93.00
11540;DHT22;5826;54.756;9.192;2023-04-05T08:32:14;7.10;92.10
11540;DHT22;5826;54.756;9.192;2023-04-05T08:34:39;7.10;93.30
11540;DHT22;5826;54.756;9.192;2023-04-05T08:37:05;7.20;93.20
11540;DHT22;5826;54.756;9.192;2023-04-05T08:39:33;7.20;93.40
11540;DHT22;5826;54.756;9.192;2023-04-05T08:42:16;7.30;92.30
11540;DHT22;5826;54.756;9.192;2023-04-05T08:44:43;7.50;92.40
11540;DHT22;5826;54.756;9.192;2023-04-05T08:47:11;7.60;93.20
11540;DHT22;5826;54.756;9.192;2023-04-05T08:49:45;7.60;93.20
11540;DHT22;5826;54.756;9.192;2023-04-05T08:52:11;7.60;93.80
11540;DHT22;5826;54.756;9.192;2023-04-05T08:54:37;7.60;93.10
11540;DHT22;5826;54.756;9.192;2023-04-05T08:57:03;7.70;93.70
11540;DHT22;5826;54.756;9.192;2023-04-05T08:59:31;7.70;92.90
11540;DHT22;5826;54.756;9.192;2023-04-05T09:02:01;7.80;92.00
11540;DHT22;5826;54.756;9.192;2023-04-05T09:04:30;7.90;92.20
11540;DHT22;5826;54.756;9.192;2023-04-05T09:06:57;8.10;93.00
11540;DHT22;5826;54.756;9.192;2023-04-05T09:09:23;8.20;91.90
11540;DHT22;5826;54.756;9.192;2023-04-05T09:11:49;8.40;92.30
11540;DHT22;5826;54.756;9.192;2023-04-05T09:14:16;8.40;91.40
11540;DHT22;5826;54.756;9.192;2023-04-05T09:16:42;8.50;92.10
11540;DHT22;5826;54.756;9.192;2023-04-05T09:19:08;8.60;91.80
11540;DHT22;5826;54.756;9.192;2023-04-05T09:21:56;8.60;91.40
11540;DHT22;5826;54.756;9.192;2023-04-05T09:24:40;8.70;91.90
11540;DHT22;5826;54.756;9.192;2023-04-05T09:27:13;8.80;91.20
11540;DHT22;5826;54.756;9.192;2023-04-05T09:29:43;8.90;91.40
11540;DHT22;5826;54.756;9.192;2023-04-05T09:32:10;9.00;91.80
11540;DHT22;5826;54.756;9.192;2023-04-05T09:34:36;9.00;91.70
11540;DHT22;5826;54.756;9.192;2023-04-05T09:37:11;9.00;91.10
11540;DHT22;5826;54.756;9.192;2023-04-05T09:39:38;9.10;90.80
11540;DHT22;5826;54.756;9.192;2023-04-05T09:44:50;9.20;91.10
11540;DHT22;5826;54.756;9.192;2023-04-05T09:47:17;9.40;90.90
11540;DHT22;5826;54.756;9.192;2023-04-05T09:49:43;9.50;91.10
11540;DHT22;5826;54.756;9.192;2023-04-05T09:52:26;9.70;90.70
11540;DHT22;5826;54.756;9.192;2023-04-05T09:54:56;9.70;90.40
11540;DHT22;5826;54.756;9.192;2023-04-05T09:57:25;9.70;90.60
11540;DHT22;5826;54.756;9.192;2023-04-05T09:59:52;9.70;90.20
11540;DHT22;5826;54.756;9.192;2023-04-05T10:02:18;9.80;90.20
11540;DHT22;5826;54.756;9.192;2023-04-05T10:04:45;9.90;90.60
11540;DHT22;5826;54.756;9.192;2023-04-05T10:07:13;10.00;90.40
11540;DHT22;5826;54.756;9.192;2023-04-05T10:09:40;10.20;90.00
11540;DHT22;5826;54.756;9.192;2023-04-05T10:12:07;10.30;90.00
11540;DHT22;5826;54.756;9.192;2023-04-05T10:14:34;10.30;89.30
11540;DHT22;5826;54.756;9.192;2023-04-05T10:22:33;10.60;89.00
11540;DHT22;5826;54.756;9.192;2023-04-05T10:25:09;10.70;89.30
11540;DHT22;5826;54.756;9.192;2023-04-05T10:27:47;10.80;89.20
11540;DHT22;5826;54.756;9.192;2023-04-05T10:30:16;10.90;89.10
11540;DHT22;5826;54.756;9.192;2023-04-05T10:32:51;11.10;89.20
11540;DHT22;5826;54.756;9.192;2023-04-05T10:40:38;11.10;87.30
11540;DHT22;5826;54.756;9.192;2023-04-05T10:43:10;11.20;86.70
11540;DHT22;5826;54.756;9.192;2023-04-05T10:45:40;11.30;86.30
11540;DHT22;5826;54.756;9.192;2023-04-05T10:51:07;11.10;84.90
11540;DHT22;5826;54.756;9.192;2023-04-05T10:53:36;10.90;84.80
11540;DHT22;5826;54.756;9.192;2023-04-05T10:56:02;10.90;85.30
11540;DHT22;5826;54.756;9.192;2023-04-05T10:58:29;11.10;85.90
11540;DHT22;5826;54.756;9.192;2023-04-05T11:00:56;11.20;86.30
11540;DHT22;5826;54.756;9.192;2023-04-05T11:04:13;11.40;84.20
11540;DHT22;5826;54.756;9.192;2023-04-05T11:06:39;11.70;82.30
11540;DHT22;5826;54.756;9.192;2023-04-05T11:09:10;11.90;83.50
11540;DHT22;5826;54.756;9.192;2023-04-05T11:11:40;12.30;83.20
11540;DHT22;5826;54.756;9.192;2023-04-05T11:16:54;12.20;83.20
11540;DHT22;5826;54.756;9.192;2023-04-05T11:22:11;11.80;82.70
11540;DHT22;5826;54.756;9.192;2023-04-05T11:24:57;11.60;83.40
11540;DHT22;5826;54.756;9.192;2023-04-05T11:27:28;11.40;84.00
11540;DHT22;5826;54.756;9.192;2023-04-05T11:29:54;11.20;82.30
11540;DHT22;5826;54.756;9.192;2023-04-05T11:32:21;11.00;82.10
11540;DHT22;5826;54.756;9.192;2023-04-05T11:35:04;10.80;83.20
11540;DHT22;5826;54.756;9.192;2023-04-05T11:38:04;10.70;83.10
11540;DHT22;5826;54.756;9.192;2023-04-05T11:40:33;10.70;83.70
11540;DHT22;5826;54.756;9.192;2023-04-05T11:43:04;10.70;83.70
11540;DHT22;5826;54.756;9.192;2023-04-05T11:45:31;10.70;81.40
11540;DHT22;5826;54.756;9.192;2023-04-05T11:47:59;10.70;82.90
11540;DHT22;5826;54.756;9.192;2023-04-05T11:50:25;10.70;82.80
11540;DHT22;5826;54.756;9.192;2023-04-05T11:53:14;10.60;82.30
11540;DHT22;5826;54.756;9.192;2023-04-05T11:55:45;10.60;84.10
11540;DHT22;5826;54.756;9.192;2023-04-05T11:58:21;10.60;84.10
11540;DHT22;5826;54.756;9.192;2023-04-05T12:00:57;10.60;84.60
11540;DHT22;5826;54.756;9.192;2023-04-05T12:03:24;10.70;84.50
11540;DHT22;5826;54.756;9.192;2023-04-05T12:05:52;11.00;83.10
11540;DHT22;5826;54.756;9.192;2023-04-05T12:08:21;11.30;82.60
11540;DHT22;5826;54.756;9.192;2023-04-05T12:10:56;11.70;81.70
11540;DHT22;5826;54.756;9.192;2023-04-05T12:13:27;12.10;81.30
11540;DHT22;5826;54.756;9.192;2023-04-05T12:15:53;12.50;79.80
11540;DHT22;5826;54.756;9.192;2023-04-05T12:18:21;12.60;78.80
11540;DHT22;5826;54.756;9.192;2023-04-05T12:20:48;12.40;77.80
11540;DHT22;5826;54.756;9.192;2023-04-05T12:23:14;12.20;79.30
11540;DHT22;5826;54.756;9.192;2023-04-05T12:25:45;12.00;79.20
11540;DHT22;5826;54.756;9.192;2023-04-05T12:28:11;11.70;79.40
11540;DHT22;5826;54.756;9.192;2023-04-05T12:30:47;11.60;80.60
11540;DHT22;5826;54.756;9.192;2023-04-05T12:33:13;11.50;81.20
11540;DHT22;5826;54.756;9.192;2023-04-05T12:35:38;11.40;79.70
11540;DHT22;5826;54.756;9.192;2023-04-05T12:38:04;11.40;79.70
11540;DHT22;5826;54.756;9.192;2023-04-05T12:40:32;11.50;79.80
11540;DHT22;5826;54.756;9.192;2023-04-05T12:43:06;12.00;79.30
11540;DHT22;5826;54.756;9.192;2023-04-05T12:45:32;12.60;78.30
11540;DHT22;5826;54.756;9.192;2023-04-05T12:48:08;13.30;76.50
11540;DHT22;5826;54.756;9.192;2023-04-05T12:50:35;14.10;74.40
11540;DHT22;5826;54.756;9.192;2023-04-05T12:53:04;14.60;73.10
11540;DHT22;5826;54.756;9.192;2023-04-05T12:55:30;15.10;72.70
11540;DHT22;5826;54.756;9.192;2023-04-05T12:57:58;15.50;71.40
11540;DHT22;5826;54.756;9.192;2023-04-05T13:00:26;15.90;71.70
11540;DHT22;5826;54.756;9.192;2023-04-05T13:02:53;16.20;71.20
11540;DHT22;5826;54.756;9.192;2023-04-05T13:05:20;16.20;71.80
11540;DHT22;5826;54.756;9.192;2023-04-05T13:07:46;15.90;71.10
11540;DHT22;5826;54.756;9.192;2023-04-05T13:10:12;15.30;72.80
11540;DHT22;5826;54.756;9.192;2023-04-05T13:12:37;14.80;73.30
11540;DHT22;5826;54.756;9.192;2023-04-05T13:15:03;14.30;75.10
11540;DHT22;5826;54.756;9.192;2023-04-05T13:17:29;13.90;75.10
11540;DHT22;5826;54.756;9.192;2023-04-05T13:19:55;13.40;76.40
11540;DHT22;5826;54.756;9.192;2023-04-05T13:22:21;13.10;78.40
11540;DHT22;5826;54.756;9.192;2023-04-05T13:24:46;13.20;76.30
11540;DHT22;5826;54.756;9.192;2023-04-05T13:27:12;13.40;75.70
11540;DHT22;5826;54.756;9.192;2023-04-05T13:29:37;13.60;74.10
11540;DHT22;5826;54.756;9.192;2023-04-05T13:32:03;13.90;73.50
11540;DHT22;5826;54.756;9.192;2023-04-05T13:34:28;14.10;72.50
11540;DHT22;5826;54.756;9.192;2023-04-05T13:36:54;14.20;73.80
11540;DHT22;5826;54.756;9.192;2023-04-05T13:39:20;14.10;73.80
11540;DHT22;5826;54.756;9.192;2023-04-05T13:41:45;13.90;74.60
11540;DHT22;5826;54.756;9.192;2023-04-05T13:44:11;13.80;74.60
11540;DHT22;5826;54.756;9.192;2023-04-05T13:46:36;14.30;73.80
11540;DHT22;5826;54.756;9.192;2023-04-05T13:49:02;14.70;73.30
11540;DHT22;5826;54.756;9.192;2023-04-05T13:51:27;14.60;72.80
11540;DHT22;5826;54.756;9.192;2023-04-05T13:53:58;14.20;75.50
11540;DHT22;5826;54.756;9.192;2023-04-05T13:56:24;13.70;74.70
11540;DHT22;5826;54.756;9.192;2023-04-05T13:58:50;13.30;77.60
11540;DHT22;5826;54.756;9.192;2023-04-05T14:01:15;13.00;76.60
11540;DHT22;5826;54.756;9.192;2023-04-05T14:03:41;12.80;76.40
11540;DHT22;5826;54.756;9.192;2023-04-05T14:06:06;12.60;77.60
11540;DHT22;5826;54.756;9.192;2023-04-05T14:08:32;12.40;78.80
11540;DHT22;5826;54.756;9.192;2023-04-05T14:10:57;12.30;79.70
11540;DHT22;5826;54.756;9.192;2023-04-05T14:13:23;12.40;77.80
11540;DHT22;5826;54.756;9.192;2023-04-05T14:15:48;12.70;77.10
11540;DHT22;5826;54.756;9.192;2023-04-05T14:18:14;13.00;75.20
11540;DHT22;5826;54.756;9.192;2023-04-05T14:20:40;13.30;73.80
11540;DHT22;5826;54.756;9.192;2023-04-05T14:23:05;14.60;73.30
11540;DHT22;5826;54.756;9.192;2023-04-05T14:25:31;16.50;73.40
11540;DHT22;5826;54.756;9.192;2023-04-05T14:27:57;20.00;68.60
11540;DHT22;5826;54.756;9.192;2023-04-05T14:30:22;23.30;64.60
11540;DHT22;5826;54.756;9.192;2023-04-05T14:32:48;26.50;62.00
11540;DHT22;5826;54.756;9.192;2023-04-05T14:35:13;29.10;61.10
11540;DHT22;5826;54.756;9.192;2023-04-05T14:37:39;31.00;59.50
11540;DHT22;5826;54.756;9.192;2023-04-05T14:40:05;32.70;59.70
11540;DHT22;5826;54.756;9.192;2023-04-05T14:42:30;33.80;60.00
11540;DHT22;5826;54.756;9.192;2023-04-05T14:44:56;34.80;59.00
11540;DHT22;5826;54.756;9.192;2023-04-05T14:47:21;35.70;59.70
11540;DHT22;5826;54.756;9.192;2023-04-05T14:49:47;36.40;60.50
11540;DHT22;5826;54.756;9.192;2023-04-05T14:52:13;36.80;59.80
11540;DHT22;5826;54.756;9.192;2023-04-05T14:54:38;37.20;61.70
11540;DHT22;5826;54.756;9.192;2023-04-05T14:57:03;37.50;61.50
11540;DHT22;5826;54.756;9.192;2023-04-05T14:59:29;37.90;61.90
11540;DHT22;5826;54.756;9.192;2023-04-05T15:01:56;38.30;61.70
11540;DHT22;5826;54.756;9.192;2023-04-05T15:04:22;38.30;62.10
11540;DHT22;5826;54.756;9.192;2023-04-05T15:06:47;38.40;62.50
11540;DHT22;5826;54.756;9.192;2023-04-05T15:09:13;38.70;61.70
11540;DHT22;5826;54.756;9.192;2023-04-05T15:11:39;39.00;61.40
11540;DHT22;5826;54.756;9.192;2023-04-05T15:14:06;39.10;58.90
11540;DHT22;5826;54.756;9.192;2023-04-05T15:16:31;37.10;63.70
11540;DHT22;5826;54.756;9.192;2023-04-05T15:18:57;33.20;66.20
11540;DHT22;5826;54.756;9.192;2023-04-05T15:21:25;29.20;71.00
11540;DHT22;5826;54.756;9.192;2023-04-05T15:23:51;26.30;75.00
11540;DHT22;5826;54.756;9.192;2023-04-05T15:26:16;26.50;71.80
11540;DHT22;5826;54.756;9.192;2023-04-05T15:28:42;28.30;68.20
11540;DHT22;5826;54.756;9.192;2023-04-05T15:31:07;30.50;66.40
11540;DHT22;5826;54.756;9.192;2023-04-05T15:33:33;32.20;64.70
11540;DHT22;5826;54.756;9.192;2023-04-05T15:35:58;33.70;62.10
11540;DHT22;5826;54.756;9.192;2023-04-05T15:38:24;34.70;62.20
11540;DHT22;5826;54.756;9.192;2023-04-05T15:40:49;35.40;61.60
11540;DHT22;5826;54.756;9.192;2023-04-05T15:43:17;35.60;60.80
11540;DHT22;5826;54.756;9.192;2023-04-05T15:45:43;36.00;61.60
11540;DHT22;5826;54.756;9.192;2023-04-05T15:48:08;36.20;60.20
11540;DHT22;5826;54.756;9.192;2023-04-05T15:50:34;36.50;59.00
11540;DHT22;5826;54.756;9.192;2023-04-05T15:52:59;36.80;60.00
11540;DHT22;5826;54.756;9.192;2023-04-05T15:55:25;36.60;59.20
11540;DHT22;5826;54.756;9.192;2023-04-05T15:57:51;36.50;61.10
11540;DHT22;5826;54.756;9.192;2023-04-05T16:00:19;36.60;59.60
11540;DHT22;5826;54.756;9.192;2023-04-05T16:02:45;36.70;59.60
11540;DHT22;5826;54.756;9.192;2023-04-05T16:05:11;36.20;58.60
11540;DHT22;5826;54.756;9.192;2023-04-05T16:07:36;34.80;60.00
11540;DHT22;5826;54.756;9.192;2023-04-05T16:10:03;31.80;64.80
11540;DHT22;5826;54.756;9.192;2023-04-05T16:12:28;30.60;65.50
11540;DHT22;5826;54.756;9.192;2023-04-05T16:14:54;30.90;63.20
11540;DHT22;5826;54.756;9.192;2023-04-05T16:17:19;31.60;62.80
11540;DHT22;5826;54.756;9.192;2023-04-05T16:19:45;32.40;61.80
11540;DHT22;5826;54.756;9.192;2023-04-05T16:22:11;32.90;60.20
11540;DHT22;5826;54.756;9.192;2023-04-05T16:24:36;33.30;60.00
11540;DHT22;5826;54.756;9.192;2023-04-05T16:27:03;33.40;59.30
11540;DHT22;5826;54.756;9.192;2023-04-05T16:29:29;33.40;59.60